METAR Data
IDs: Format: Raw Decoded Include TAF

Data at: 1538 UTC 18 Aug 2019

PAPM 181456Z AUTO 01004KT CLR 11/09 A3026 RMK AO2 SLP249 T01060094 58012 PWINO $
PAPM 181356Z AUTO 07006KT CLR 11/09 A3027 RMK AO2 SLP254 T01110094 PWINO $
PAPM 181256Z AUTO 08006KT CLR 12/09 A3029 RMK AO2 SLP259 T01170094 PWINO $
PAPM 181156Z AUTO 05010KT CLR 14/11 A3029 RMK AO2 SLP261 T01390106 10167 20133 55005 PWINO $
PAPM 181056Z AUTO 04011KT CLR 14/11 A3029 RMK AO2 SLP261 T01390111 PWINO $
PAPM 180956Z AUTO 04009KT CLR 15/12 A3030 RMK AO2 SLP263 T01500117 PWINO $
PAPM 180856Z AUTO 06008KT CLR 16/11 A3031 RMK AO2 SLP266 T01560111 402060133 55003 PWINO $
PAPM 180756Z AUTO 03008KT CLR 16/12 A3031 RMK AO2 SLP265 T01560117 PWINO $
PAPM 180656Z AUTO 35015KT CLR 15/11 A3031 RMK AO2 SLP266 T01500106 PWINO $
PAPM 180556Z AUTO 36016KT CLR 16/11 A3032 RMK AO2 SLP269 T01610111 10206 20161 57004 PWINO $
PAPM 180456Z AUTO 35017G23KT CLR 18/11 A3032 RMK AO2 SLP270 T01780111 PWINO $
PAPM 180356Z AUTO 35017KT CLR 19/12 A3032 RMK AO2 SLP271 T01890117 PWINO $
PAPM 180256Z AUTO 35020KT CLR 20/11 A3033 RMK AO2 SLP273 T02000111 56017 PWINO $
PAPM 180156Z AUTO 35016G20KT CLR 21/11 A3034 RMK AO2 SLP278 T02060111 PWINO $
PAPM 180056Z AUTO 35018G24KT CLR 20/11 A3036 RMK AO2 SLP284 T02000111 PWINO $
PAPM 172356Z AUTO 35017KT CLR 19/11 A3038 RMK AO2 SLP291 T01940106 10194 20150 58013 PWINO $
PAPM 172256Z AUTO 35019G23KT CLR 18/12 A3040 RMK AO2 SLP296 T01830122 PWINO $
PAPM 172156Z AUTO 35017KT CLR 18/13 A3041 RMK AO2 SLP299 T01780133 PWINO $
PAPM 172048Z AUTO 35014G19KT FEW010 SCT014 17/14 A3042 RMK AO2 PWINO $
PAPM 171956Z AUTO 34016KT BKN012 16/14 A3043 RMK AO2 SLP307 T01610139 PWINO $
PAPM 171938Z AUTO 34016KT OVC012 16/14 A3043 RMK AO2 PWINO $
PAPM 171914Z AUTO 34015KT BKN008 BKN014 16/14 A3044 RMK AO2 PWINO $
PAPM 171856Z AUTO 35015KT BKN010 BKN014 16/14 A3044 RMK AO2 CIG 005V013 SLP309 T01560139 PWINO $
PAPM 171853Z AUTO 35014KT BKN010 OVC014 16/14 A3044 RMK AO2 CIG 007V013 PWINO $
PAPM 171836Z AUTO 35012KT BKN008 OVC014 15/14 A3045 RMK AO2 CIG 007V013 PWINO $
PAPM 171756Z AUTO 36012KT OVC010 15/14 A3045 RMK AO2 CIG 007V015 SLP313 T01500144 10150 20144 58005 PWINO $
PAPM 171721Z AUTO 35012KT OVC010 15/13 A3046 RMK AO2 CIG 006V012 PWINO $
PAPM 171656Z AUTO 35011KT BKN006 OVC010 14/14 A3046 RMK AO2 SLP318 T01440139 PWINO $
PAPM 171556Z AUTO 35010KT OVC006 14/13 A3046 RMK AO2 SLP316 T01440133 PWINO $
PAPM 171456Z AUTO 34010KT OVC006 14/14 A3046 RMK AO2 CIG 004V009 SLP319 T01440139 58002 PWINO $
PAPM 171356Z AUTO 34011KT OVC004 15/14 A3047 RMK AO2 SLP320 T01500144 PWINO $
PAPM 171256Z AUTO 34010KT OVC004 15/14 A3047 RMK AO2 CIG 003V008 SLP321 T01500144 PWINO $
PAPM 171254Z AUTO 34010KT OVC004 15/14 A3047 RMK AO2 CIG 003V008 PWINO $
PAPM 171229Z AUTO 33008KT OVC006 15/14 A3047 RMK AO2 CIG 004V008 PWINO $
PAPM 171156Z AUTO 32010KT OVC004 15/14 A3048 RMK AO2 CIG 003V010 SLP322 T01500144 10150 20144 58003 PWINO $
PAPM 171119Z AUTO 33010KT BKN004 OVC014 15/14 A3048 RMK AO2 PWINO $
PAPM 171056Z AUTO 34009KT SCT004 BKN008 OVC014 15/14 A3049 RMK AO2 CIG 006V010 SLP326 T01500144 PWINO $
PAPM 171048Z AUTO 33009KT SCT004 BKN008 OVC014 15/14 A3049 RMK AO2 PWINO $
PAPM 170956Z AUTO 33010KT OVC005 15/14 A3049 RMK AO2 SLP328 T01500144 PWINO $
PAPM 170856Z AUTO 33009KT OVC005 14/14 A3049 RMK AO2 CIG 003V009 SLP326 T01440144 401610133 58004 PWINO $
PAPM 170837Z AUTO 34010KT BKN005 OVC011 14/14 A3049 RMK AO2 CIG 003V008 PWINO $
PAPM 170814Z AUTO 33009KT BKN007 OVC011 14/14 A3049 RMK AO2 CIG 005V009 PWINO $
PAPM 170756Z AUTO 34008KT SCT007 BKN011 OVC017 14/14 A3049 RMK AO2 SLP328 T01440139 PWINO $
PAPM 170751Z AUTO 35008KT FEW005 BKN011 OVC017 14/14 A3049 RMK AO2 PWINO $
PAPM 170703Z AUTO 32010KT BKN005 OVC010 14/13 A3050 RMK AO2 CIG 004V009 PWINO $
PAPM 170656Z AUTO 32011KT BKN007 OVC013 14/13 A3050 RMK AO2 CIG 005V010 SLP330 T01440133 PWINO $
PAPM 170556Z AUTO 32010KT OVC011 15/13 A3050 RMK AO2 SLP331 T01500128 10161 20150 58004 PWINO $
PAPM 170456Z AUTO 31011KT BKN011 15/13 A3051 RMK AO2 SLP333 T01500128 PWINO $
PAPM 170432Z AUTO 32011KT BKN009 15/13 A3050 RMK AO2 PWINO $
PAPM 170356Z AUTO 31012KT SCT009 16/13 A3051 RMK AO2 SLP334 T01560128 PWINO $
PAPM 170353Z AUTO 31009KT SCT009 16/13 A3051 RMK AO2 PWINO $